sensor_id;sensor_type;location;lat;lon;timestamp;P1;durP1;ratioP1;P2;durP2;ratioP2
41623;SDS011;27319;50.306;18.926;2024-02-23T00:03:06;7.95;;;3.33;;
41623;SDS011;27319;50.306;18.926;2024-02-23T00:06:07;6.90;;;3.72;;
41623;SDS011;27319;50.306;18.926;2024-02-23T00:09:09;6.82;;;3.60;;
41623;SDS011;27319;50.306;18.926;2024-02-23T00:12:10;5.38;;;3.35;;
41623;SDS011;27319;50.306;18.926;2024-02-23T00:16:11;8.40;;;3.60;;
41623;SDS011;27319;50.306;18.926;2024-02-23T00:19:11;10.30;;;3.67;;
41623;SDS011;27319;50.306;18.926;2024-02-23T00:22:14;5.10;;;2.80;;
41623;SDS011;27319;50.306;18.926;2024-02-23T00:26:14;8.82;;;3.67;;
41623;SDS011;27319;50.306;18.926;2024-02-23T00:30:15;5.80;;;3.30;;
41623;SDS011;27319;50.306;18.926;2024-02-23T00:34:16;7.30;;;3.30;;
41623;SDS011;27319;50.306;18.926;2024-02-23T00:38:17;5.97;;;3.55;;
41623;SDS011;27319;50.306;18.926;2024-02-23T00:42:17;6.47;;;3.53;;
41623;SDS011;27319;50.306;18.926;2024-02-23T00:46:18;5.80;;;2.97;;
41623;SDS011;27319;50.306;18.926;2024-02-23T00:49:19;6.43;;;2.83;;
41623;SDS011;27319;50.306;18.926;2024-02-23T00:52:20;5.22;;;3.53;;
41623;SDS011;27319;50.306;18.926;2024-02-23T00:55:21;5.40;;;3.22;;
41623;SDS011;27319;50.306;18.926;2024-02-23T00:58:22;5.10;;;3.08;;
41623;SDS011;27319;50.306;18.926;2024-02-23T01:02:23;7.28;;;3.67;;
41623;SDS011;27319;50.306;18.926;2024-02-23T01:06:23;4.55;;;3.53;;
41623;SDS011;27319;50.306;18.926;2024-02-23T01:09:25;8.10;;;3.53;;
41623;SDS011;27319;50.306;18.926;2024-02-23T01:13:26;5.55;;;3.47;;
41623;SDS011;27319;50.306;18.926;2024-02-23T01:17:27;5.72;;;3.63;;
41623;SDS011;27319;50.306;18.926;2024-02-23T01:21:27;6.40;;;3.53;;
41623;SDS011;27319;50.306;18.926;2024-02-23T01:25:28;9.20;;;3.60;;
41623;SDS011;27319;50.306;18.926;2024-02-23T01:29:29;7.13;;;3.97;;
41623;SDS011;27319;50.306;18.926;2024-02-23T01:33:30;5.80;;;3.70;;
41623;SDS011;27319;50.306;18.926;2024-02-23T01:37:31;6.43;;;3.88;;
41623;SDS011;27319;50.306;18.926;2024-02-23T01:41:31;7.05;;;3.80;;
41623;SDS011;27319;50.306;18.926;2024-02-23T01:45:32;6.72;;;3.30;;
41623;SDS011;27319;50.306;18.926;2024-02-23T01:48:33;5.28;;;3.28;;
41623;SDS011;27319;50.306;18.926;2024-02-23T01:51:34;5.07;;;3.10;;
41623;SDS011;27319;50.306;18.926;2024-02-23T01:55:35;8.82;;;3.53;;
41623;SDS011;27319;50.306;18.926;2024-02-23T01:59:38;5.30;;;3.15;;
41623;SDS011;27319;50.306;18.926;2024-02-23T02:02:40;5.13;;;3.03;;
41623;SDS011;27319;50.306;18.926;2024-02-23T02:05:41;5.38;;;3.17;;
41623;SDS011;27319;50.306;18.926;2024-02-23T02:09:42;5.20;;;2.80;;
41623;SDS011;27319;50.306;18.926;2024-02-23T02:13:42;3.78;;;2.60;;
41623;SDS011;27319;50.306;18.926;2024-02-23T02:17:43;4.00;;;2.55;;
41623;SDS011;27319;50.306;18.926;2024-02-23T02:21:44;6.13;;;2.63;;
41623;SDS011;27319;50.306;18.926;2024-02-23T02:25:45;4.05;;;2.40;;
41623;SDS011;27319;50.306;18.926;2024-02-23T02:28:57;4.07;;;2.30;;
41623;SDS011;27319;50.306;18.926;2024-02-23T02:32:57;4.97;;;2.67;;
41623;SDS011;27319;50.306;18.926;2024-02-23T02:37:00;7.07;;;2.75;;
41623;SDS011;27319;50.306;18.926;2024-02-23T02:40:59;6.80;;;2.92;;
41623;SDS011;27319;50.306;18.926;2024-02-23T02:45:00;4.00;;;2.85;;
41623;SDS011;27319;50.306;18.926;2024-02-23T02:49:01;4.80;;;2.70;;
41623;SDS011;27319;50.306;18.926;2024-02-23T02:53:02;5.80;;;2.83;;
41623;SDS011;27319;50.306;18.926;2024-02-23T02:57:02;3.55;;;2.42;;
41623;SDS011;27319;50.306;18.926;2024-02-23T03:01:03;4.13;;;2.90;;
41623;SDS011;27319;50.306;18.926;2024-02-23T03:04:03;6.97;;;3.17;;
41623;SDS011;27319;50.306;18.926;2024-02-23T03:07:05;5.75;;;3.75;;
41623;SDS011;27319;50.306;18.926;2024-02-23T03:10:06;4.97;;;3.53;;
41623;SDS011;27319;50.306;18.926;2024-02-23T03:13:07;4.70;;;3.30;;
41623;SDS011;27319;50.306;18.926;2024-02-23T03:17:08;9.02;;;3.75;;
41623;SDS011;27319;50.306;18.926;2024-02-23T03:21:09;4.82;;;3.00;;
41623;SDS011;27319;50.306;18.926;2024-02-23T03:25:10;5.68;;;3.28;;
41623;SDS011;27319;50.306;18.926;2024-02-23T03:29:10;8.48;;;5.65;;
41623;SDS011;27319;50.306;18.926;2024-02-23T03:33:11;6.85;;;3.85;;
41623;SDS011;27319;50.306;18.926;2024-02-23T03:37:12;8.15;;;5.28;;
41623;SDS011;27319;50.306;18.926;2024-02-23T03:41:12;8.55;;;5.13;;
41623;SDS011;27319;50.306;18.926;2024-02-23T03:45:13;5.18;;;3.35;;
41623;SDS011;27319;50.306;18.926;2024-02-23T03:49:14;4.30;;;3.33;;
41623;SDS011;27319;50.306;18.926;2024-02-23T03:53:15;5.50;;;2.95;;
41623;SDS011;27319;50.306;18.926;2024-02-23T03:57:15;4.50;;;3.10;;
41623;SDS011;27319;50.306;18.926;2024-02-23T04:01:16;5.97;;;4.05;;
41623;SDS011;27319;50.306;18.926;2024-02-23T04:05:20;5.38;;;3.15;;
41623;SDS011;27319;50.306;18.926;2024-02-23T04:09:20;5.18;;;3.10;;
41623;SDS011;27319;50.306;18.926;2024-02-23T04:13:21;4.13;;;2.55;;
41623;SDS011;27319;50.306;18.926;2024-02-23T04:17:22;4.22;;;3.05;;
41623;SDS011;27319;50.306;18.926;2024-02-23T04:21:23;4.35;;;2.80;;
41623;SDS011;27319;50.306;18.926;2024-02-23T04:25:23;6.47;;;2.80;;
41623;SDS011;27319;50.306;18.926;2024-02-23T04:28:24;5.97;;;3.00;;
41623;SDS011;27319;50.306;18.926;2024-02-23T04:32:25;5.30;;;3.05;;
41623;SDS011;27319;50.306;18.926;2024-02-23T04:36:26;7.40;;;4.13;;
41623;SDS011;27319;50.306;18.926;2024-02-23T04:40:26;6.35;;;4.05;;
41623;SDS011;27319;50.306;18.926;2024-02-23T04:44:27;7.60;;;4.20;;
41623;SDS011;27319;50.306;18.926;2024-02-23T04:48:27;6.88;;;4.72;;
41623;SDS011;27319;50.306;18.926;2024-02-23T04:52:28;7.75;;;4.90;;
41623;SDS011;27319;50.306;18.926;2024-02-23T04:56:29;11.70;;;6.85;;
41623;SDS011;27319;50.306;18.926;2024-02-23T05:00:30;11.77;;;7.90;;
41623;SDS011;27319;50.306;18.926;2024-02-23T05:04:31;32.03;;;18.02;;
41623;SDS011;27319;50.306;18.926;2024-02-23T05:08:31;20.35;;;13.00;;
41623;SDS011;27319;50.306;18.926;2024-02-23T05:12:32;10.73;;;7.70;;
41623;SDS011;27319;50.306;18.926;2024-02-23T05:16:33;14.00;;;7.32;;
41623;SDS011;27319;50.306;18.926;2024-02-23T05:20:34;9.73;;;7.10;;
41623;SDS011;27319;50.306;18.926;2024-02-23T05:24:34;10.88;;;7.72;;
41623;SDS011;27319;50.306;18.926;2024-02-23T05:28:35;14.57;;;8.68;;
41623;SDS011;27319;50.306;18.926;2024-02-23T05:32:36;14.48;;;7.90;;
41623;SDS011;27319;50.306;18.926;2024-02-23T05:36:37;14.80;;;8.25;;
41623;SDS011;27319;50.306;18.926;2024-02-23T05:40:37;13.73;;;8.98;;
41623;SDS011;27319;50.306;18.926;2024-02-23T05:44:38;18.35;;;10.88;;
41623;SDS011;27319;50.306;18.926;2024-02-23T05:48:39;21.20;;;12.32;;
41623;SDS011;27319;50.306;18.926;2024-02-23T05:52:40;19.40;;;13.13;;
41623;SDS011;27319;50.306;18.926;2024-02-23T05:56:41;23.40;;;14.82;;
41623;SDS011;27319;50.306;18.926;2024-02-23T06:00:41;45.70;;;24.15;;
41623;SDS011;27319;50.306;18.926;2024-02-23T06:04:42;29.02;;;17.55;;
41623;SDS011;27319;50.306;18.926;2024-02-23T06:08:43;29.17;;;15.50;;
41623;SDS011;27319;50.306;18.926;2024-02-23T06:12:44;22.85;;;13.07;;
41623;SDS011;27319;50.306;18.926;2024-02-23T06:15:44;21.42;;;12.27;;
41623;SDS011;27319;50.306;18.926;2024-02-23T06:18:45;15.82;;;10.68;;
41623;SDS011;27319;50.306;18.926;2024-02-23T06:22:47;19.20;;;9.48;;
41623;SDS011;27319;50.306;18.926;2024-02-23T06:26:47;19.00;;;10.63;;
41623;SDS011;27319;50.306;18.926;2024-02-23T06:30:48;21.67;;;14.38;;
41623;SDS011;27319;50.306;18.926;2024-02-23T06:34:49;27.45;;;19.58;;
41623;SDS011;27319;50.306;18.926;2024-02-23T06:38:50;16.77;;;11.00;;
41623;SDS011;27319;50.306;18.926;2024-02-23T06:42:50;23.90;;;13.80;;
41623;SDS011;27319;50.306;18.926;2024-02-23T06:46:51;42.75;;;28.73;;
41623;SDS011;27319;50.306;18.926;2024-02-23T06:50:52;34.63;;;21.70;;
41623;SDS011;27319;50.306;18.926;2024-02-23T06:54:53;27.70;;;16.08;;
41623;SDS011;27319;50.306;18.926;2024-02-23T06:58:54;25.98;;;14.68;;
41623;SDS011;27319;50.306;18.926;2024-02-23T07:02:54;21.98;;;13.40;;
41623;SDS011;27319;50.306;18.926;2024-02-23T07:06:55;22.85;;;14.07;;
41623;SDS011;27319;50.306;18.926;2024-02-23T07:10:56;25.95;;;15.85;;
41623;SDS011;27319;50.306;18.926;2024-02-23T07:13:57;22.33;;;14.13;;
41623;SDS011;27319;50.306;18.926;2024-02-23T07:16:58;23.40;;;13.98;;
41623;SDS011;27319;50.306;18.926;2024-02-23T07:20:59;20.40;;;12.43;;
41623;SDS011;27319;50.306;18.926;2024-02-23T07:24:59;21.48;;;14.63;;
41623;SDS011;27319;50.306;18.926;2024-02-23T07:28:03;18.38;;;11.75;;
41623;SDS011;27319;50.306;18.926;2024-02-23T07:32:04;20.48;;;12.80;;
41623;SDS011;27319;50.306;18.926;2024-02-23T07:36:05;19.35;;;12.27;;
41623;SDS011;27319;50.306;18.926;2024-02-23T07:40:06;21.38;;;13.52;;
41623;SDS011;27319;50.306;18.926;2024-02-23T07:44:07;23.10;;;14.68;;
41623;SDS011;27319;50.306;18.926;2024-02-23T07:48:07;27.92;;;16.05;;
41623;SDS011;27319;50.306;18.926;2024-02-23T07:52:08;28.00;;;15.27;;
41623;SDS011;27319;50.306;18.926;2024-02-23T07:56:09;26.80;;;15.20;;
41623;SDS011;27319;50.306;18.926;2024-02-23T08:00:10;24.77;;;14.93;;
41623;SDS011;27319;50.306;18.926;2024-02-23T08:04:10;25.17;;;15.63;;
41623;SDS011;27319;50.306;18.926;2024-02-23T08:08:12;28.40;;;15.25;;
41623;SDS011;27319;50.306;18.926;2024-02-23T08:11:12;25.67;;;16.02;;
41623;SDS011;27319;50.306;18.926;2024-02-23T08:14:14;22.33;;;13.82;;
41623;SDS011;27319;50.306;18.926;2024-02-23T08:18:15;22.45;;;15.07;;
41623;SDS011;27319;50.306;18.926;2024-02-23T08:22:16;21.83;;;13.15;;
41623;SDS011;27319;50.306;18.926;2024-02-23T08:26:16;23.95;;;12.60;;
41623;SDS011;27319;50.306;18.926;2024-02-23T08:30:17;19.23;;;11.43;;
41623;SDS011;27319;50.306;18.926;2024-02-23T08:34:18;21.58;;;10.95;;
41623;SDS011;27319;50.306;18.926;2024-02-23T08:38:19;18.08;;;10.52;;
41623;SDS011;27319;50.306;18.926;2024-02-23T08:42:19;17.30;;;10.48;;
41623;SDS011;27319;50.306;18.926;2024-02-23T08:46:20;18.63;;;12.15;;
41623;SDS011;27319;50.306;18.926;2024-02-23T08:50:21;18.50;;;11.70;;
41623;SDS011;27319;50.306;18.926;2024-02-23T08:54:22;20.83;;;12.98;;
41623;SDS011;27319;50.306;18.926;2024-02-23T08:57:22;19.33;;;12.38;;
41623;SDS011;27319;50.306;18.926;2024-02-23T09:00:24;21.40;;;13.65;;
41623;SDS011;27319;50.306;18.926;2024-02-23T09:03:24;21.73;;;12.38;;
41623;SDS011;27319;50.306;18.926;2024-02-23T09:06:25;17.58;;;11.45;;
41623;SDS011;27319;50.306;18.926;2024-02-23T09:09:26;14.77;;;10.30;;
41623;SDS011;27319;50.306;18.926;2024-02-23T09:12:27;19.73;;;10.85;;
41623;SDS011;27319;50.306;18.926;2024-02-23T09:15:28;19.13;;;10.38;;
41623;SDS011;27319;50.306;18.926;2024-02-23T09:18:29;23.88;;;14.25;;
41623;SDS011;27319;50.306;18.926;2024-02-23T09:21:30;17.88;;;11.35;;
41623;SDS011;27319;50.306;18.926;2024-02-23T09:24:31;23.10;;;13.20;;
41623;SDS011;27319;50.306;18.926;2024-02-23T09:27:32;25.52;;;14.50;;
41623;SDS011;27319;50.306;18.926;2024-02-23T09:30:33;19.40;;;12.98;;
41623;SDS011;27319;50.306;18.926;2024-02-23T09:33:33;20.08;;;13.05;;
41623;SDS011;27319;50.306;18.926;2024-02-23T09:36:35;17.70;;;11.30;;
41623;SDS011;27319;50.306;18.926;2024-02-23T09:39:35;20.58;;;11.98;;
41623;SDS011;27319;50.306;18.926;2024-02-23T09:42:36;29.27;;;16.60;;
41623;SDS011;27319;50.306;18.926;2024-02-23T09:45:38;27.38;;;15.70;;
41623;SDS011;27319;50.306;18.926;2024-02-23T09:48:39;27.75;;;14.27;;
41623;SDS011;27319;50.306;18.926;2024-02-23T09:51:41;28.55;;;15.27;;
41623;SDS011;27319;50.306;18.926;2024-02-23T09:54:42;20.00;;;11.02;;
41623;SDS011;27319;50.306;18.926;2024-02-23T09:57:43;21.17;;;10.05;;
41623;SDS011;27319;50.306;18.926;2024-02-23T10:00:45;15.23;;;8.23;;
41623;SDS011;27319;50.306;18.926;2024-02-23T10:03:46;18.17;;;9.40;;
41623;SDS011;27319;50.306;18.926;2024-02-23T10:06:48;15.73;;;9.57;;
41623;SDS011;27319;50.306;18.926;2024-02-23T10:10:49;17.45;;;10.75;;
41623;SDS011;27319;50.306;18.926;2024-02-23T10:14:49;17.88;;;10.05;;
41623;SDS011;27319;50.306;18.926;2024-02-23T10:18:50;17.50;;;11.30;;
41623;SDS011;27319;50.306;18.926;2024-02-23T10:22:51;15.57;;;9.55;;
41623;SDS011;27319;50.306;18.926;2024-02-23T10:26:52;14.73;;;8.80;;
41623;SDS011;27319;50.306;18.926;2024-02-23T10:30:53;11.35;;;7.63;;
41623;SDS011;27319;50.306;18.926;2024-02-23T10:34:53;10.88;;;6.95;;
41623;SDS011;27319;50.306;18.926;2024-02-23T10:38:57;9.27;;;6.22;;
41623;SDS011;27319;50.306;18.926;2024-02-23T10:42:58;9.63;;;6.60;;
41623;SDS011;27319;50.306;18.926;2024-02-23T10:46:59;14.18;;;6.60;;
41623;SDS011;27319;50.306;18.926;2024-02-23T10:50:59;15.90;;;7.05;;
41623;SDS011;27319;50.306;18.926;2024-02-23T10:55:00;13.10;;;7.03;;
41623;SDS011;27319;50.306;18.926;2024-02-23T10:58:05;14.93;;;6.80;;
41623;SDS011;27319;50.306;18.926;2024-02-23T11:01:09;13.13;;;6.65;;
41623;SDS011;27319;50.306;18.926;2024-02-23T11:04:11;14.95;;;7.07;;
41623;SDS011;27319;50.306;18.926;2024-02-23T11:08:12;16.10;;;7.85;;
41623;SDS011;27319;50.306;18.926;2024-02-23T11:12:13;13.80;;;7.68;;
41623;SDS011;27319;50.306;18.926;2024-02-23T11:16:21;13.18;;;7.88;;
41623;SDS011;27319;50.306;18.926;2024-02-23T11:20:15;13.05;;;7.07;;
41623;SDS011;27319;50.306;18.926;2024-02-23T11:24:15;15.15;;;6.55;;
41623;SDS011;27319;50.306;18.926;2024-02-23T11:28:25;12.88;;;6.88;;
41623;SDS011;27319;50.306;18.926;2024-02-23T11:32:39;16.48;;;8.27;;
41623;SDS011;27319;50.306;18.926;2024-02-23T11:36:36;18.70;;;9.93;;
41623;SDS011;27319;50.306;18.926;2024-02-23T11:40:36;15.00;;;8.57;;
41623;SDS011;27319;50.306;18.926;2024-02-23T11:44:37;15.73;;;8.85;;
41623;SDS011;27319;50.306;18.926;2024-02-23T11:48:38;20.60;;;11.48;;
41623;SDS011;27319;50.306;18.926;2024-02-23T11:51:56;23.55;;;10.90;;
41623;SDS011;27319;50.306;18.926;2024-02-23T11:54:57;21.77;;;11.13;;
41623;SDS011;27319;50.306;18.926;2024-02-23T11:57:57;13.98;;;9.00;;
41623;SDS011;27319;50.306;18.926;2024-02-23T12:01:02;15.18;;;9.32;;
41623;SDS011;27319;50.306;18.926;2024-02-23T12:04:03;15.95;;;9.05;;
41623;SDS011;27319;50.306;18.926;2024-02-23T12:07:04;12.65;;;8.60;;
41623;SDS011;27319;50.306;18.926;2024-02-23T12:10:05;17.10;;;10.20;;
41623;SDS011;27319;50.306;18.926;2024-02-23T12:13:07;15.70;;;9.05;;
41623;SDS011;27319;50.306;18.926;2024-02-23T12:17:08;15.20;;;9.15;;
41623;SDS011;27319;50.306;18.926;2024-02-23T12:20:09;12.90;;;9.98;;
41623;SDS011;27319;50.306;18.926;2024-02-23T12:23:11;18.08;;;10.43;;
41623;SDS011;27319;50.306;18.926;2024-02-23T12:26:13;15.25;;;8.80;;
41623;SDS011;27319;50.306;18.926;2024-02-23T12:30:13;17.67;;;9.52;;
41623;SDS011;27319;50.306;18.926;2024-02-23T12:34:13;20.23;;;12.38;;
41623;SDS011;27319;50.306;18.926;2024-02-23T12:38:14;22.33;;;12.70;;
41623;SDS011;27319;50.306;18.926;2024-02-23T12:42:15;25.73;;;12.65;;
41623;SDS011;27319;50.306;18.926;2024-02-23T12:46:16;23.65;;;13.40;;
41623;SDS011;27319;50.306;18.926;2024-02-23T12:50:16;22.60;;;13.80;;
41623;SDS011;27319;50.306;18.926;2024-02-23T12:54:17;19.38;;;13.20;;
41623;SDS011;27319;50.306;18.926;2024-02-23T12:58:18;21.25;;;12.23;;
41623;SDS011;27319;50.306;18.926;2024-02-23T13:02:19;19.90;;;12.07;;
41623;SDS011;27319;50.306;18.926;2024-02-23T13:06:19;21.92;;;13.38;;
41623;SDS011;27319;50.306;18.926;2024-02-23T13:10:20;25.80;;;15.00;;
41623;SDS011;27319;50.306;18.926;2024-02-23T13:14:21;24.48;;;14.60;;
41623;SDS011;27319;50.306;18.926;2024-02-23T13:18:22;21.58;;;12.75;;
41623;SDS011;27319;50.306;18.926;2024-02-23T13:22:22;22.70;;;13.07;;
41623;SDS011;27319;50.306;18.926;2024-02-23T13:26:23;22.42;;;13.88;;
41623;SDS011;27319;50.306;18.926;2024-02-23T13:30:24;20.92;;;12.32;;
41623;SDS011;27319;50.306;18.926;2024-02-23T13:34:25;19.25;;;11.82;;
41623;SDS011;27319;50.306;18.926;2024-02-23T13:38:26;22.35;;;12.98;;
41623;SDS011;27319;50.306;18.926;2024-02-23T13:42:30;23.50;;;13.82;;
41623;SDS011;27319;50.306;18.926;2024-02-23T13:46:30;22.20;;;12.30;;
41623;SDS011;27319;50.306;18.926;2024-02-23T13:50:31;20.02;;;11.45;;
41623;SDS011;27319;50.306;18.926;2024-02-23T13:54:32;21.75;;;13.63;;
41623;SDS011;27319;50.306;18.926;2024-02-23T13:58:33;29.33;;;16.63;;
41623;SDS011;27319;50.306;18.926;2024-02-23T14:02:34;29.27;;;17.80;;
41623;SDS011;27319;50.306;18.926;2024-02-23T14:06:35;27.67;;;16.75;;
41623;SDS011;27319;50.306;18.926;2024-02-23T14:10:35;23.92;;;14.65;;
41623;SDS011;27319;50.306;18.926;2024-02-23T14:14:36;24.65;;;13.40;;
41623;SDS011;27319;50.306;18.926;2024-02-23T14:18:37;20.65;;;11.48;;
41623;SDS011;27319;50.306;18.926;2024-02-23T14:21:38;20.50;;;11.00;;
41623;SDS011;27319;50.306;18.926;2024-02-23T14:24:40;17.13;;;10.80;;
41623;SDS011;27319;50.306;18.926;2024-02-23T14:27:41;15.63;;;10.57;;
41623;SDS011;27319;50.306;18.926;2024-02-23T14:31:41;16.55;;;10.27;;
41623;SDS011;27319;50.306;18.926;2024-02-23T14:35:42;30.52;;;12.85;;
41623;SDS011;27319;50.306;18.926;2024-02-23T14:39:43;22.88;;;13.40;;
41623;SDS011;27319;50.306;18.926;2024-02-23T14:43:44;25.80;;;14.07;;
41623;SDS011;27319;50.306;18.926;2024-02-23T14:47:44;22.13;;;12.85;;
41623;SDS011;27319;50.306;18.926;2024-02-23T14:51:45;16.35;;;10.00;;
41623;SDS011;27319;50.306;18.926;2024-02-23T14:55:46;16.52;;;8.98;;
41623;SDS011;27319;50.306;18.926;2024-02-23T14:59:47;15.75;;;9.18;;
41623;SDS011;27319;50.306;18.926;2024-02-23T15:03:48;20.08;;;10.05;;
41623;SDS011;27319;50.306;18.926;2024-02-23T15:07:48;15.00;;;9.00;;
41623;SDS011;27319;50.306;18.926;2024-02-23T15:11:49;14.93;;;8.98;;
41623;SDS011;27319;50.306;18.926;2024-02-23T15:15:50;16.77;;;9.73;;
41623;SDS011;27319;50.306;18.926;2024-02-23T15:19:54;16.85;;;9.82;;
41623;SDS011;27319;50.306;18.926;2024-02-23T15:23:54;15.48;;;8.90;;
41623;SDS011;27319;50.306;18.926;2024-02-23T15:27:55;15.32;;;10.77;;
41623;SDS011;27319;50.306;18.926;2024-02-23T15:31:56;17.90;;;9.48;;
41623;SDS011;27319;50.306;18.926;2024-02-23T15:35:57;14.38;;;8.07;;
41623;SDS011;27319;50.306;18.926;2024-02-23T15:39:58;14.93;;;9.02;;
41623;SDS011;27319;50.306;18.926;2024-02-23T15:42:58;18.00;;;10.00;;
41623;SDS011;27319;50.306;18.926;2024-02-23T15:45:59;13.88;;;9.25;;
41623;SDS011;27319;50.306;18.926;2024-02-23T15:50:00;16.65;;;10.23;;
41623;SDS011;27319;50.306;18.926;2024-02-23T15:54:01;19.45;;;10.32;;
41623;SDS011;27319;50.306;18.926;2024-02-23T15:58:02;20.25;;;12.93;;
41623;SDS011;27319;50.306;18.926;2024-02-23T16:02:02;20.85;;;12.15;;
41623;SDS011;27319;50.306;18.926;2024-02-23T16:06:03;20.83;;;14.18;;
41623;SDS011;27319;50.306;18.926;2024-02-23T16:10:04;25.70;;;16.08;;
41623;SDS011;27319;50.306;18.926;2024-02-23T16:14:05;25.35;;;15.85;;
41623;SDS011;27319;50.306;18.926;2024-02-23T16:18:06;25.98;;;16.70;;
41623;SDS011;27319;50.306;18.926;2024-02-23T16:21:35;25.95;;;17.63;;
41623;SDS011;27319;50.306;18.926;2024-02-23T16:24:37;30.33;;;18.60;;
41623;SDS011;27319;50.306;18.926;2024-02-23T16:27:38;27.30;;;17.45;;
41623;SDS011;27319;50.306;18.926;2024-02-23T16:30:42;30.27;;;17.42;;
41623;SDS011;27319;50.306;18.926;2024-02-23T16:33:43;26.77;;;17.15;;
41623;SDS011;27319;50.306;18.926;2024-02-23T16:36:44;24.67;;;16.02;;
41623;SDS011;27319;50.306;18.926;2024-02-23T16:39:45;25.33;;;16.40;;
41623;SDS011;27319;50.306;18.926;2024-02-23T16:42:46;27.05;;;16.38;;
41623;SDS011;27319;50.306;18.926;2024-02-23T16:45:47;25.48;;;17.80;;
41623;SDS011;27319;50.306;18.926;2024-02-23T16:49:47;26.60;;;17.40;;
41623;SDS011;27319;50.306;18.926;2024-02-23T16:53:48;28.70;;;19.35;;
41623;SDS011;27319;50.306;18.926;2024-02-23T16:57:49;26.13;;;15.88;;
41623;SDS011;27319;50.306;18.926;2024-02-23T17:01:53;28.17;;;16.17;;
41623;SDS011;27319;50.306;18.926;2024-02-23T17:05:53;25.17;;;15.80;;
41623;SDS011;27319;50.306;18.926;2024-02-23T17:09:54;27.02;;;17.52;;
41623;SDS011;27319;50.306;18.926;2024-02-23T17:13:55;32.38;;;17.85;;
41623;SDS011;27319;50.306;18.926;2024-02-23T17:17:56;31.27;;;18.48;;
41623;SDS011;27319;50.306;18.926;2024-02-23T17:21:56;34.78;;;22.83;;
41623;SDS011;27319;50.306;18.926;2024-02-23T17:25:57;37.08;;;22.63;;
41623;SDS011;27319;50.306;18.926;2024-02-23T17:29:58;37.00;;;22.77;;
41623;SDS011;27319;50.306;18.926;2024-02-23T17:33:59;42.78;;;27.27;;
41623;SDS011;27319;50.306;18.926;2024-02-23T17:37:59;38.08;;;23.70;;
41623;SDS011;27319;50.306;18.926;2024-02-23T17:42:00;39.88;;;25.73;;
41623;SDS011;27319;50.306;18.926;2024-02-23T17:46:01;47.75;;;30.23;;
41623;SDS011;27319;50.306;18.926;2024-02-23T17:50:02;52.88;;;33.22;;
41623;SDS011;27319;50.306;18.926;2024-02-23T17:54:03;46.92;;;31.70;;
41623;SDS011;27319;50.306;18.926;2024-02-23T17:57:04;51.67;;;32.42;;
41623;SDS011;27319;50.306;18.926;2024-02-23T18:01:04;48.38;;;31.58;;
41623;SDS011;27319;50.306;18.926;2024-02-23T18:05:05;46.28;;;30.00;;
41623;SDS011;27319;50.306;18.926;2024-02-23T18:09:06;46.83;;;30.50;;
41623;SDS011;27319;50.306;18.926;2024-02-23T18:13:07;50.35;;;30.15;;
41623;SDS011;27319;50.306;18.926;2024-02-23T18:17:07;47.55;;;29.40;;
41623;SDS011;27319;50.306;18.926;2024-02-23T18:21:08;49.25;;;29.65;;
41623;SDS011;27319;50.306;18.926;2024-02-23T18:24:11;44.70;;;27.10;;
41623;SDS011;27319;50.306;18.926;2024-02-23T18:27:12;45.03;;;28.20;;
41623;SDS011;27319;50.306;18.926;2024-02-23T18:30:13;44.65;;;28.67;;
41623;SDS011;27319;50.306;18.926;2024-02-23T18:33:15;43.30;;;28.13;;
41623;SDS011;27319;50.306;18.926;2024-02-23T18:36:16;44.60;;;26.23;;
41623;SDS011;27319;50.306;18.926;2024-02-23T18:40:17;40.10;;;25.52;;
41623;SDS011;27319;50.306;18.926;2024-02-23T18:44:18;33.70;;;21.45;;
41623;SDS011;27319;50.306;18.926;2024-02-23T18:48:19;36.42;;;22.80;;
41623;SDS011;27319;50.306;18.926;2024-02-23T18:52:19;37.78;;;21.38;;
41623;SDS011;27319;50.306;18.926;2024-02-23T18:56:20;39.47;;;21.58;;
41623;SDS011;27319;50.306;18.926;2024-02-23T19:00:21;37.08;;;19.02;;
41623;SDS011;27319;50.306;18.926;2024-02-23T19:04:22;29.45;;;17.63;;
41623;SDS011;27319;50.306;18.926;2024-02-23T19:08:23;32.75;;;18.33;;
41623;SDS011;27319;50.306;18.926;2024-02-23T19:11:23;33.38;;;19.02;;
41623;SDS011;27319;50.306;18.926;2024-02-23T19:14:24;30.63;;;19.02;;
41623;SDS011;27319;50.306;18.926;2024-02-23T19:17:25;32.90;;;19.65;;
41623;SDS011;27319;50.306;18.926;2024-02-23T19:20:26;35.58;;;20.98;;
41623;SDS011;27319;50.306;18.926;2024-02-23T19:24:27;37.88;;;21.25;;
41623;SDS011;27319;50.306;18.926;2024-02-23T19:28:28;41.35;;;23.15;;
41623;SDS011;27319;50.306;18.926;2024-02-23T19:32:29;41.40;;;24.33;;
41623;SDS011;27319;50.306;18.926;2024-02-23T19:36:29;41.25;;;25.35;;
41623;SDS011;27319;50.306;18.926;2024-02-23T19:40:30;42.70;;;26.25;;
41623;SDS011;27319;50.306;18.926;2024-02-23T19:44:31;43.63;;;25.50;;
41623;SDS011;27319;50.306;18.926;2024-02-23T19:48:32;44.97;;;26.50;;
41623;SDS011;27319;50.306;18.926;2024-02-23T19:52:33;46.35;;;27.58;;
41623;SDS011;27319;50.306;18.926;2024-02-23T19:56:33;52.53;;;28.67;;
41623;SDS011;27319;50.306;18.926;2024-02-23T20:00:34;45.78;;;25.95;;
41623;SDS011;27319;50.306;18.926;2024-02-23T20:04:35;44.50;;;26.45;;
41623;SDS011;27319;50.306;18.926;2024-02-23T20:08:11;47.58;;;26.27;;
41623;SDS011;27319;50.306;18.926;2024-02-23T20:11:13;44.55;;;26.17;;
41623;SDS011;27319;50.306;18.926;2024-02-23T20:14:14;48.22;;;28.17;;
41623;SDS011;27319;50.306;18.926;2024-02-23T20:18:14;47.60;;;28.85;;
41623;SDS011;27319;50.306;18.926;2024-02-23T20:22:15;50.78;;;28.77;;
41623;SDS011;27319;50.306;18.926;2024-02-23T20:26:16;49.50;;;27.95;;
41623;SDS011;27319;50.306;18.926;2024-02-23T20:30:17;55.70;;;30.50;;
41623;SDS011;27319;50.306;18.926;2024-02-23T20:34:18;51.03;;;29.58;;
41623;SDS011;27319;50.306;18.926;2024-02-23T20:38:18;44.88;;;26.60;;
41623;SDS011;27319;50.306;18.926;2024-02-23T20:42:19;48.65;;;28.25;;
41623;SDS011;27319;50.306;18.926;2024-02-23T20:46:22;51.30;;;29.33;;
41623;SDS011;27319;50.306;18.926;2024-02-23T20:50:21;48.75;;;29.65;;
41623;SDS011;27319;50.306;18.926;2024-02-23T20:54:22;49.60;;;27.75;;
41623;SDS011;27319;50.306;18.926;2024-02-23T20:58:22;45.97;;;27.98;;
41623;SDS011;27319;50.306;18.926;2024-02-23T21:02:23;49.15;;;27.98;;
41623;SDS011;27319;50.306;18.926;2024-02-23T21:06:24;51.95;;;29.05;;
41623;SDS011;27319;50.306;18.926;2024-02-23T21:10:25;50.88;;;29.92;;
41623;SDS011;27319;50.306;18.926;2024-02-23T21:14:26;53.20;;;29.52;;
41623;SDS011;27319;50.306;18.926;2024-02-23T21:18:26;53.42;;;30.58;;
41623;SDS011;27319;50.306;18.926;2024-02-23T21:22:27;51.40;;;30.00;;
41623;SDS011;27319;50.306;18.926;2024-02-23T21:25:28;56.70;;;32.25;;
41623;SDS011;27319;50.306;18.926;2024-02-23T21:28:29;49.13;;;27.83;;
41623;SDS011;27319;50.306;18.926;2024-02-23T21:32:12;44.20;;;26.55;;
41623;SDS011;27319;50.306;18.926;2024-02-23T21:36:12;38.75;;;22.45;;
41623;SDS011;27319;50.306;18.926;2024-02-23T21:40:13;39.15;;;21.80;;
41623;SDS011;27319;50.306;18.926;2024-02-23T21:44:14;39.90;;;21.60;;
41623;SDS011;27319;50.306;18.926;2024-02-23T21:48:15;32.45;;;20.83;;